Time;durP1;ratioP1;P1;durP2;ratioP2;P2;SDS_P1;SDS_P2;PMS_P1;PMS_P2;Temp;Humidity;BMP_temperature;BMP_pressure;BME280_temperature;BME280_humidity;BME280_pressure;Samples;Min_cycle;Max_cycle;Signal;HPM_P1;HPM_P2
2022/11/22 00:02:23;;;;;;;41.55;19.17;;;3.90;99.90;;;;;;4976715;28;20495;-40
2022/11/22 00:04:50;;;;;;;39.22;19.52;;;3.90;99.90;;;;;;4982496;28;20080;-37
2022/11/22 00:07:17;;;;;;;35.88;20.10;;;4.00;99.90;;;;;;4987854;28;20477;-39
2022/11/22 00:09:45;;;;;;;33.85;18.60;;;3.90;99.90;;;;;;4991266;28;20181;-40
2022/11/22 00:12:12;;;;;;;31.73;18.00;;;3.90;99.90;;;;;;4993016;28;20575;-39
2022/11/22 00:14:38;;;;;;;35.72;18.38;;;3.90;99.90;;;;;;4991881;28;20046;-39
2022/11/22 00:17:05;;;;;;;32.08;18.80;;;3.90;99.90;;;;;;4989409;28;20137;-40
2022/11/22 00:19:32;;;;;;;31.40;18.55;;;3.90;99.90;;;;;;4973264;28;20129;-39
2022/11/22 00:21:59;;;;;;;29.92;16.75;;;3.90;99.90;;;;;;4984202;28;20050;-40
2022/11/22 00:24:25;;;;;;;28.73;17.33;;;3.90;99.90;;;;;;4994271;28;20090;-40
2022/11/22 00:26:53;;;;;;;30.95;18.35;;;3.90;99.90;;;;;;4988914;28;20546;-38
2022/11/22 00:29:20;;;;;;;29.65;17.77;;;4.00;99.90;;;;;;4974702;28;20110;-38
2022/11/22 00:31:47;;;;;;;28.95;16.92;;;4.00;99.90;;;;;;4992590;28;20141;-39
2022/11/22 00:34:14;;;;;;;30.17;16.88;;;4.00;99.90;;;;;;4994578;28;20137;-38
2022/11/22 00:36:40;;;;;;;34.67;17.40;;;4.00;99.90;;;;;;4992439;28;20082;-39
2022/11/22 00:39:07;;;;;;;24.75;14.15;;;4.00;99.90;;;;;;4980062;28;20506;-38
2022/11/22 00:41:34;;;;;;;31.60;17.02;;;4.00;99.90;;;;;;4975421;28;20098;-38
2022/11/22 00:44:02;;;;;;;29.08;16.40;;;4.10;99.90;;;;;;4974540;28;20086;-38
2022/11/22 00:46:29;;;;;;;31.45;16.98;;;4.10;99.90;;;;;;4967001;28;20138;-38
2022/11/22 00:48:56;;;;;;;32.75;17.33;;;4.10;99.90;;;;;;5005902;28;20050;-39
2022/11/22 00:51:23;;;;;;;31.58;16.63;;;4.10;99.90;;;;;;4983474;28;20043;-37
2022/11/22 00:53:49;;;;;;;26.55;16.23;;;4.10;99.90;;;;;;4973433;28;20054;-40
2022/11/22 00:56:16;;;;;;;31.75;17.00;;;4.10;99.90;;;;;;4974854;28;20082;-38
2022/11/22 00:58:43;;;;;;;28.17;15.82;;;4.10;99.90;;;;;;4971928;28;20058;-40
2022/11/22 01:01:11;;;;;;;32.00;17.13;;;4.20;99.90;;;;;;4997204;28;20074;-39
2022/11/22 01:03:38;;;;;;;29.27;16.58;;;4.20;99.90;;;;;;4982519;28;20054;-39
2022/11/22 01:06:05;;;;;;;28.83;16.88;;;4.20;99.90;;;;;;4965674;28;20047;-39
2022/11/22 01:08:31;;;;;;;30.48;15.90;;;4.20;99.90;;;;;;4978713;28;20103;-39
2022/11/22 01:10:58;;;;;;;29.15;16.83;;;4.20;99.90;;;;;;4987815;28;20070;-39
2022/11/22 01:13:25;;;;;;;30.25;17.33;;;4.20;99.90;;;;;;4971954;28;20130;-39
2022/11/22 01:15:52;;;;;;;32.00;17.80;;;4.20;99.90;;;;;;4983687;28;20120;-39
2022/11/22 01:18:20;;;;;;;32.78;18.35;;;4.20;99.90;;;;;;4964270;28;20045;-40
2022/11/22 01:20:47;;;;;;;37.15;18.85;;;4.20;99.90;;;;;;4986948;28;20122;-40
2022/11/22 01:23:14;;;;;;;32.53;18.70;;;4.20;99.90;;;;;;4980701;28;20050;-40
2022/11/22 01:25:42;;;;;;;36.45;18.70;;;4.20;99.90;;;;;;4974474;28;20629;-39
2022/11/22 01:28:09;;;;;;;29.95;18.23;;;4.20;99.90;;;;;;4970808;28;20526;-38
2022/11/22 01:30:36;;;;;;;31.17;18.25;;;4.10;99.90;;;;;;4984955;28;20089;-39
2022/11/22 01:33:03;;;;;;;34.42;19.02;;;4.10;99.90;;;;;;4965704;28;20046;-40
2022/11/22 01:35:31;;;;;;;32.65;18.40;;;4.10;99.90;;;;;;4991289;28;20123;-39
2022/11/22 01:37:58;;;;;;;38.08;20.10;;;4.10;99.90;;;;;;4971111;28;20086;-37
2022/11/22 01:40:24;;;;;;;33.58;19.00;;;4.10;99.90;;;;;;4989677;28;20047;-39
2022/11/22 01:42:52;;;;;;;35.63;19.60;;;4.10;99.90;;;;;;4988180;28;20097;-40
2022/11/22 01:45:41;;;;;;;37.15;20.13;;;4.10;99.90;;;;;;4979551;28;20057;-39
2022/11/22 01:48:16;;;;;;;41.65;20.33;;;4.10;99.90;;;;;;4968989;28;20483;-40
2022/11/22 01:50:46;;;;;;;37.28;20.00;;;4.00;99.90;;;;;;4989676;28;20081;-40
2022/11/22 01:53:14;;;;;;;39.50;20.08;;;4.00;99.90;;;;;;4974988;28;20085;-40
2022/11/22 01:55:40;;;;;;;39.83;20.13;;;4.00;99.90;;;;;;4991607;28;20101;-39
2022/11/22 01:58:07;;;;;;;35.55;20.48;;;4.10;99.90;;;;;;4961734;28;20573;-37
2022/11/22 02:00:34;;;;;;;36.88;18.85;;;4.00;99.90;;;;;;4982727;28;20038;-38
2022/11/22 02:03:01;;;;;;;34.38;20.10;;;4.00;99.90;;;;;;4991234;28;20101;-39
2022/11/22 02:05:30;;;;;;;36.95;19.88;;;4.00;99.90;;;;;;4966406;28;20536;-38
2022/11/22 02:07:59;;;;;;;38.60;21.00;;;4.00;99.90;;;;;;4999234;28;20056;-37
2022/11/22 02:10:28;;;;;;;34.28;19.67;;;4.10;99.90;;;;;;5007937;28;20140;-38
2022/11/22 02:12:55;;;;;;;39.08;20.38;;;4.10;99.90;;;;;;5016422;28;20053;-39
2022/11/22 02:15:22;;;;;;;35.00;19.52;;;4.10;99.90;;;;;;4995466;28;20100;-40
2022/11/22 02:17:49;;;;;;;36.97;19.70;;;4.10;99.90;;;;;;4997584;28;20081;-40
2022/11/22 02:20:16;;;;;;;38.33;20.63;;;4.10;99.90;;;;;;4996780;28;20089;-39
2022/11/22 02:22:45;;;;;;;40.65;21.15;;;4.10;99.90;;;;;;5014205;28;20136;-38
2022/11/22 02:25:15;;;;;;;40.03;21.60;;;4.10;99.90;;;;;;5012188;28;20141;-38
2022/11/22 02:27:43;;;;;;;42.90;21.45;;;4.10;99.90;;;;;;5006530;28;20058;-39
2022/11/22 02:30:11;;;;;;;35.60;19.48;;;4.10;99.90;;;;;;5011714;28;20126;-39
2022/11/22 02:32:37;;;;;;;36.08;19.33;;;4.10;99.90;;;;;;5012341;28;20449;-40
2022/11/22 02:35:16;;;;;;;39.60;21.38;;;4.10;99.90;;;;;;5014034;28;20133;-40
2022/11/22 02:37:43;;;;;;;39.88;20.80;;;4.10;99.90;;;;;;5011010;28;20058;-40
2022/11/22 02:40:11;;;;;;;41.35;20.33;;;4.20;99.90;;;;;;5013154;28;20081;-38
2022/11/22 02:42:38;;;;;;;40.67;20.20;;;4.10;99.90;;;;;;4998500;28;20493;-39
2022/11/22 02:45:07;;;;;;;38.05;19.60;;;4.20;99.90;;;;;;5014373;28;20049;-40
2022/11/22 02:47:34;;;;;;;39.22;19.63;;;4.20;99.90;;;;;;5007600;28;20446;-38
2022/11/22 02:50:01;;;;;;;40.75;20.20;;;4.20;99.90;;;;;;5012718;28;20459;-39
2022/11/22 02:52:27;;;;;;;40.22;20.45;;;4.10;99.90;;;;;;5006556;28;20050;-40
2022/11/22 02:54:54;;;;;;;39.17;20.55;;;4.20;99.90;;;;;;4996161;28;20086;-39
2022/11/22 02:57:21;;;;;;;46.45;20.30;;;4.20;99.90;;;;;;4996594;28;20109;-40
2022/11/22 02:59:48;;;;;;;39.30;19.70;;;4.30;99.90;;;;;;5009692;28;20057;-39
2022/11/22 03:02:16;;;;;;;36.45;19.05;;;4.30;99.90;;;;;;5015464;28;20120;-40
2022/11/22 03:04:43;;;;;;;37.65;19.63;;;4.30;99.90;;;;;;5007536;28;20814;-39
2022/11/22 03:07:09;;;;;;;40.55;19.10;;;4.30;99.90;;;;;;5016067;28;20458;-38
2022/11/22 03:09:36;;;;;;;40.22;19.50;;;4.30;99.90;;;;;;5007155;28;20057;-39
2022/11/22 03:12:03;;;;;;;34.55;18.92;;;4.30;99.90;;;;;;5015323;28;20129;-40
2022/11/22 03:14:30;;;;;;;42.70;19.52;;;4.30;99.90;;;;;;4996911;28;20084;-38
2022/11/22 03:16:57;;;;;;;38.65;19.48;;;4.30;99.90;;;;;;4995764;28;20046;-39
2022/11/22 03:19:25;;;;;;;34.75;18.60;;;4.40;99.90;;;;;;5001186;28;20054;-40
2022/11/22 03:21:52;;;;;;;40.03;19.52;;;4.40;99.90;;;;;;5003985;28;20512;-39
2022/11/22 03:24:19;;;;;;;40.40;20.13;;;4.40;99.90;;;;;;5013009;28;20528;-39
2022/11/22 03:26:47;;;;;;;32.40;19.40;;;4.40;99.90;;;;;;5012573;28;20485;-40
2022/11/22 03:29:14;;;;;;;40.47;18.98;;;4.40;99.90;;;;;;4999265;28;20044;-39
2022/11/22 03:31:40;;;;;;;38.58;19.98;;;4.50;99.90;;;;;;5012560;28;20085;-38
2022/11/22 03:34:07;;;;;;;37.22;19.08;;;4.40;99.90;;;;;;4997437;28;20445;-39
2022/11/22 03:36:35;;;;;;;35.58;18.13;;;4.50;99.90;;;;;;5013293;28;20077;-39
2022/11/22 03:39:02;;;;;;;36.40;19.50;;;4.50;99.90;;;;;;4986953;28;20054;-38
2022/11/22 03:41:29;;;;;;;38.70;18.67;;;4.50;99.90;;;;;;5013365;28;20046;-39
2022/11/22 03:43:56;;;;;;;39.03;20.67;;;4.50;99.90;;;;;;5008780;28;20546;-38
2022/11/22 03:46:22;;;;;;;33.90;19.13;;;4.50;99.90;;;;;;5013645;28;20506;-38
2022/11/22 03:48:49;;;;;;;41.97;19.65;;;4.50;99.90;;;;;;5013115;28;20050;-38
2022/11/22 03:51:16;;;;;;;36.83;20.08;;;4.50;99.90;;;;;;5013381;28;20108;-39
2022/11/22 03:53:44;;;;;;;34.83;19.83;;;4.50;99.90;;;;;;4990533;28;20116;-37
2022/11/22 03:56:11;;;;;;;38.00;19.33;;;4.50;99.90;;;;;;4995665;28;20086;-39
2022/11/22 03:58:38;;;;;;;41.78;20.45;;;4.50;99.90;;;;;;4995437;28;20073;-39
2022/11/22 04:01:04;;;;;;;36.88;18.85;;;4.50;99.90;;;;;;5017868;28;20042;-39
2022/11/22 04:03:31;;;;;;;36.53;19.55;;;4.60;99.90;;;;;;5011935;28;20042;-39
2022/11/22 04:05:58;;;;;;;35.95;19.00;;;4.60;99.90;;;;;;5002246;28;20101;-39
2022/11/22 04:08:25;;;;;;;37.10;20.17;;;4.60;99.90;;;;;;4974153;28;20101;-39
2022/11/22 04:10:53;;;;;;;40.35;20.42;;;4.60;99.90;;;;;;4975541;28;20501;-39
2022/11/22 04:13:20;;;;;;;32.00;18.08;;;4.60;99.90;;;;;;4986764;28;20526;-39
2022/11/22 04:15:46;;;;;;;34.40;18.67;;;4.60;99.90;;;;;;4974506;28;20105;-38
2022/11/22 04:18:13;;;;;;;32.28;18.90;;;4.70;99.90;;;;;;4991772;28;20053;-38
2022/11/22 04:23:25;;;;;;;35.55;19.42;;;4.70;99.90;;;;;;4990626;28;20129;-39
2022/11/22 04:25:52;;;;;;;31.42;18.63;;;4.70;99.90;;;;;;4977013;28;20459;-39
2022/11/22 04:28:20;;;;;;;38.67;20.27;;;4.70;99.90;;;;;;4990681;28;20049;-37
2022/11/22 04:33:31;;;;;;;38.97;19.70;;;4.70;99.90;;;;;;4990962;28;20054;-38
2022/11/22 04:35:58;;;;;;;37.65;20.13;;;4.70;99.90;;;;;;4992741;28;20133;-39
2022/11/22 04:38:25;;;;;;;36.20;18.73;;;4.80;99.90;;;;;;4972109;28;20046;-38
2022/11/22 04:40:53;;;;;;;36.38;18.65;;;4.80;99.90;;;;;;4988955;28;20538;-39
2022/11/22 04:46:06;;;;;;;39.35;19.23;;;4.80;99.90;;;;;;4976428;28;20481;-37
2022/11/22 04:48:33;;;;;;;33.85;18.83;;;4.80;99.90;;;;;;4971828;28;20078;-39
2022/11/22 04:53:44;;;;;;;32.03;18.75;;;4.80;99.90;;;;;;4992535;28;20050;-40
2022/11/22 04:56:12;;;;;;;36.05;19.02;;;4.90;99.90;;;;;;4971070;28;20125;-38
2022/11/22 04:58:39;;;;;;;35.42;20.02;;;4.90;99.90;;;;;;4991349;28;20097;-40
2022/11/22 05:01:06;;;;;;;33.50;18.23;;;4.90;99.90;;;;;;4987884;28;20078;-39
2022/11/22 05:03:32;;;;;;;32.35;18.70;;;4.90;99.90;;;;;;4990827;28;20128;-38
2022/11/22 05:06:01;;;;;;;36.65;19.08;;;4.90;99.90;;;;;;4996704;28;20116;-38
2022/11/22 05:08:27;;;;;;;37.25;19.20;;;4.90;99.90;;;;;;5010355;28;20108;-39
2022/11/22 05:10:57;;;;;;;33.50;18.92;;;5.00;99.90;;;;;;4993442;28;20136;-38
2022/11/22 05:13:26;;;;;;;36.35;18.88;;;5.00;99.90;;;;;;5011373;28;20050;-38
2022/11/22 05:15:53;;;;;;;37.85;20.27;;;5.00;99.90;;;;;;5011257;28;20096;-38
2022/11/22 05:18:20;;;;;;;32.13;19.02;;;5.00;99.90;;;;;;5009900;28;20228;-39
2022/11/22 05:20:47;;;;;;;33.78;18.23;;;5.00;99.90;;;;;;5011777;28;20062;-38
2022/11/22 05:25:58;;;;;;;35.78;18.83;;;5.00;99.90;;;;;;4992499;28;20054;-39
2022/11/22 05:28:28;;;;;;;37.05;18.77;;;5.10;99.90;;;;;;5011794;28;20564;-40
2022/11/22 05:30:55;;;;;;;35.00;18.60;;;5.00;99.90;;;;;;5011510;28;20046;-40
2022/11/22 05:33:22;;;;;;;39.25;19.50;;;5.00;99.90;;;;;;5011296;28;20141;-39
2022/11/22 05:35:49;;;;;;;35.95;18.67;;;5.10;99.90;;;;;;4984503;28;20062;-40
2022/11/22 05:38:16;;;;;;;35.13;18.42;;;5.00;99.90;;;;;;4999995;28;20561;-39
2022/11/22 05:40:42;;;;;;;34.03;17.25;;;5.10;99.90;;;;;;5008099;28;20152;-39
2022/11/22 05:43:09;;;;;;;35.33;18.10;;;5.10;99.90;;;;;;4994448;28;20054;-40
2022/11/22 05:45:37;;;;;;;31.65;17.65;;;5.10;99.90;;;;;;5010775;28;20053;-38
2022/11/22 05:48:04;;;;;;;32.40;17.88;;;5.10;99.90;;;;;;5016182;28;20545;-39
2022/11/22 05:50:31;;;;;;;32.33;17.95;;;5.20;99.90;;;;;;4999679;28;20109;-38
2022/11/22 05:53:01;;;;;;;36.67;17.35;;;5.10;99.90;;;;;;4995171;28;20446;-38
2022/11/22 05:55:27;;;;;;;36.97;17.13;;;5.10;99.90;;;;;;5000716;28;20050;-39
2022/11/22 05:57:54;;;;;;;33.55;16.42;;;5.20;99.90;;;;;;5011612;28;20042;-39
2022/11/22 06:00:21;;;;;;;29.67;16.42;;;5.20;99.90;;;;;;4992522;28;20248;-40
2022/11/22 06:02:49;;;;;;;35.55;17.25;;;5.30;99.90;;;;;;5015500;28;20045;-40
2022/11/22 06:05:16;;;;;;;37.33;17.95;;;5.30;99.90;;;;;;5015605;28;20057;-39
2022/11/22 06:07:43;;;;;;;31.25;16.58;;;5.30;99.90;;;;;;4997406;28;20085;-40
2022/11/22 06:10:10;;;;;;;38.90;16.58;;;5.30;99.90;;;;;;5011310;28;20073;-39
2022/11/22 06:12:37;;;;;;;30.13;14.63;;;5.40;99.90;;;;;;5005961;28;20110;-40
2022/11/22 06:15:04;;;;;;;30.27;14.55;;;5.40;99.90;;;;;;5015401;28;20104;-39
2022/11/22 06:17:31;;;;;;;32.30;14.63;;;5.50;99.90;;;;;;5018097;28;20065;-40
2022/11/22 06:19:59;;;;;;;32.55;15.25;;;5.50;99.90;;;;;;4996804;28;20085;-40
2022/11/22 06:22:26;;;;;;;33.78;15.23;;;5.50;99.90;;;;;;5009247;28;20508;-38
2022/11/22 06:24:53;;;;;;;37.17;13.80;;;5.50;99.90;;;;;;5015946;28;20045;-38
2022/11/22 06:27:19;;;;;;;40.55;15.02;;;5.50;99.90;;;;;;5014494;28;20470;-40
2022/11/22 06:29:46;;;;;;;32.42;13.73;;;5.50;99.90;;;;;;4993530;28;20128;-40
2022/11/22 06:32:13;;;;;;;28.50;14.27;;;5.50;99.90;;;;;;4992425;28;20086;-39
2022/11/22 06:34:40;;;;;;;29.55;13.63;;;5.50;99.90;;;;;;5011509;28;20427;-39
2022/11/22 06:37:08;;;;;;;38.47;15.18;;;5.50;99.90;;;;;;5013969;28;20085;-39
2022/11/22 06:39:35;;;;;;;64.65;36.40;;;5.50;99.90;;;;;;5020811;28;20057;-40
2022/11/22 06:42:02;;;;;;;32.33;15.10;;;5.50;99.90;;;;;;5013253;28;20045;-38
2022/11/22 06:44:29;;;;;;;30.92;16.60;;;5.40;99.90;;;;;;4967204;23;20108;-40
2022/11/22 06:46:56;;;;;;;36.63;16.83;;;5.50;99.90;;;;;;5032177;28;20045;-38
2022/11/22 06:49:23;;;;;;;35.42;18.23;;;5.40;99.90;;;;;;5033016;28;20084;-40
2022/11/22 06:51:50;;;;;;;30.60;12.98;;;5.40;99.90;;;;;;5033241;28;20103;-40
2022/11/22 06:54:18;;;;;;;37.13;15.68;;;5.40;99.90;;;;;;5032150;28;20064;-39
2022/11/22 06:56:44;;;;;;;45.75;24.48;;;5.40;99.90;;;;;;5031718;28;20455;-39
2022/11/22 06:59:11;;;;;;;34.17;13.75;;;5.40;99.90;;;;;;5031779;28;20049;-38
2022/11/22 07:01:38;;;;;;;32.70;17.73;;;5.30;99.90;;;;;;5020417;28;20565;-40
2022/11/22 07:04:05;;;;;;;40.55;15.55;;;5.30;99.90;;;;;;5014641;28;20045;-39
2022/11/22 07:06:33;;;;;;;33.67;14.70;;;5.30;99.90;;;;;;5013660;28;21207;-39
2022/11/22 07:09:00;;;;;;;30.00;12.75;;;5.30;99.90;;;;;;5032295;28;20077;-39
2022/11/22 07:11:29;;;;;;;34.97;13.63;;;5.30;99.90;;;;;;5033047;28;20113;-40
2022/11/22 07:13:56;;;;;;;32.28;14.13;;;5.30;99.90;;;;;;5031105;28;20455;-39
2022/11/22 07:16:22;;;;;;;44.33;14.27;;;5.30;99.90;;;;;;5013895;28;20049;-40
2022/11/22 07:18:49;;;;;;;36.95;13.85;;;5.30;99.90;;;;;;5026404;28;20120;-38
2022/11/22 07:21:17;;;;;;;67.72;32.72;;;5.20;99.90;;;;;;5018390;28;20499;-39
2022/11/22 07:23:45;;;;;;;39.83;15.63;;;5.20;99.90;;;;;;5030590;28;20049;-39
2022/11/22 07:26:12;;;;;;;35.95;12.98;;;5.20;99.90;;;;;;5010520;28;20132;-40
2022/11/22 07:28:40;;;;;;;37.35;13.23;;;5.20;99.90;;;;;;5011956;28;20085;-40
2022/11/22 07:31:08;;;;;;;24.63;10.52;;;5.20;99.90;;;;;;5027809;28;20195;-39
2022/11/22 07:33:35;;;;;;;31.02;10.90;;;5.20;99.90;;;;;;5028559;28;20512;-40
2022/11/22 07:36:04;;;;;;;32.10;10.32;;;5.20;99.90;;;;;;5029319;28;20483;-39
2022/11/22 07:38:30;;;;;;;28.13;9.50;;;5.20;99.90;;;;;;5015160;28;20092;-40
2022/11/22 07:40:57;;;;;;;24.77;10.13;;;5.10;99.90;;;;;;5033750;28;20136;-39
2022/11/22 07:43:24;;;;;;;23.75;9.32;;;5.10;99.90;;;;;;5031332;28;20093;-39
2022/11/22 07:45:52;;;;;;;31.40;10.38;;;5.10;99.90;;;;;;5012816;28;20058;-39
2022/11/22 07:48:19;;;;;;;33.25;13.80;;;5.10;99.90;;;;;;5012785;28;20536;-39
2022/11/22 07:50:45;;;;;;;40.95;16.25;;;5.10;99.90;;;;;;4996634;28;20100;-41
2022/11/22 07:53:12;;;;;;;44.13;20.80;;;5.20;99.90;;;;;;4994573;28;20129;-40
2022/11/22 07:55:39;;;;;;;35.53;13.23;;;5.10;99.90;;;;;;5010232;28;20084;-39
2022/11/22 07:58:06;;;;;;;24.92;9.65;;;5.10;99.90;;;;;;4989809;28;20078;-38
2022/11/22 08:00:32;;;;;;;26.23;9.10;;;5.10;99.90;;;;;;5009376;28;20524;-40
2022/11/22 08:03:01;;;;;;;28.73;10.23;;;5.10;99.90;;;;;;5014249;28;20042;-41
2022/11/22 08:05:27;;;;;;;37.28;9.40;;;5.10;99.90;;;;;;5010293;28;20078;-40
2022/11/22 08:07:54;;;;;;;22.95;8.65;;;5.10;99.90;;;;;;5005366;28;20096;-40
2022/11/22 08:10:21;;;;;;;31.20;7.93;;;5.10;99.90;;;;;;5000540;28;20081;-39
2022/11/22 08:12:48;;;;;;;28.15;9.13;;;5.00;99.90;;;;;;4996579;28;20401;-39
2022/11/22 08:15:15;;;;;;;37.17;13.30;;;5.10;99.90;;;;;;5007915;28;20129;-40
2022/11/22 08:17:42;;;;;;;51.20;23.17;;;5.10;99.90;;;;;;4983127;28;20133;-39
2022/11/22 08:20:11;;;;;;;25.05;7.85;;;5.10;99.90;;;;;;4991076;28;20061;-40
2022/11/22 08:22:39;;;;;;;29.85;7.85;;;5.10;99.90;;;;;;4996317;28;20054;-39
2022/11/22 08:25:11;;;;;;;26.48;7.03;;;5.10;99.90;;;;;;4987719;28;20156;-39
2022/11/22 08:27:38;;;;;;;32.72;6.60;;;5.10;99.90;;;;;;5010818;28;20050;-39
2022/11/22 08:30:05;;;;;;;24.73;6.53;;;5.10;99.90;;;;;;5007563;28;20509;-39
2022/11/22 08:32:32;;;;;;;24.90;6.30;;;5.10;99.90;;;;;;5012947;28;20057;-40
2022/11/22 08:34:59;;;;;;;30.48;10.77;;;5.20;99.90;;;;;;5002077;28;20704;-39
2022/11/22 08:37:27;;;;;;;32.55;13.00;;;5.20;99.90;;;;;;4991974;28;20047;-39
2022/11/22 08:39:54;;;;;;;26.52;5.55;;;5.20;99.90;;;;;;4991308;28;20547;-40
2022/11/22 08:42:21;;;;;;;26.50;5.50;;;5.20;99.90;;;;;;4995888;28;20132;-40
2022/11/22 08:44:48;;;;;;;19.90;5.32;;;5.20;99.90;;;;;;5002347;28;20134;-40
2022/11/22 08:47:15;;;;;;;21.38;5.38;;;5.30;99.90;;;;;;5005895;28;20105;-40
2022/11/22 08:49:41;;;;;;;24.67;5.22;;;5.40;99.90;;;;;;5009146;28;20123;-40
2022/11/22 08:52:08;;;;;;;21.90;5.35;;;5.40;99.90;;;;;;5008740;28;20081;-37
2022/11/22 08:54:36;;;;;;;29.77;4.72;;;5.40;99.90;;;;;;5005406;28;20132;-40
2022/11/22 08:57:03;;;;;;;18.38;4.50;;;5.50;99.90;;;;;;5009407;28;20168;-39
2022/11/22 08:59:30;;;;;;;24.10;4.72;;;5.50;99.90;;;;;;5010105;28;20073;-39
2022/11/22 09:01:57;;;;;;;18.58;3.60;;;5.60;99.90;;;;;;5011675;28;20084;-39
2022/11/22 09:04:23;;;;;;;17.02;3.88;;;5.60;99.90;;;;;;5006253;28;20042;-40
2022/11/22 09:06:50;;;;;;;30.52;6.80;;;5.70;99.90;;;;;;5009242;28;20084;-37
2022/11/22 09:09:17;;;;;;;22.15;4.00;;;5.70;99.90;;;;;;5005750;28;20089;-40
2022/11/22 09:11:45;;;;;;;16.27;4.40;;;5.80;99.90;;;;;;5006538;28;20092;-40
2022/11/22 09:14:12;;;;;;;21.83;4.28;;;5.80;99.90;;;;;;4981944;28;20522;-40
2022/11/22 09:16:39;;;;;;;26.63;5.25;;;5.80;99.90;;;;;;4997623;28;20136;-40
2022/11/22 09:19:06;;;;;;;25.30;4.68;;;5.80;99.90;;;;;;5006750;28;20524;-38
2022/11/22 09:21:32;;;;;;;21.05;4.72;;;5.80;99.90;;;;;;5007012;28;20050;-40
2022/11/22 09:23:59;;;;;;;28.45;4.70;;;5.90;99.90;;;;;;4992482;28;20073;-38
2022/11/22 09:26:26;;;;;;;23.05;4.82;;;5.90;99.90;;;;;;4984129;28;20135;-39
2022/11/22 09:28:55;;;;;;;20.95;5.57;;;5.90;99.90;;;;;;5007538;28;20065;-38
2022/11/22 09:31:23;;;;;;;22.48;5.35;;;5.90;99.90;;;;;;5023286;23;20467;-34
2022/11/22 09:33:50;;;;;;;25.83;4.53;;;5.90;99.90;;;;;;4992549;28;20397;-40
2022/11/22 09:36:17;;;;;;;21.42;5.88;;;6.00;99.90;;;;;;5014681;28;20144;-40
2022/11/22 09:38:44;;;;;;;18.85;6.82;;;5.90;99.90;;;;;;5008982;28;20141;-40
2022/11/22 09:41:56;;;;;;;16.15;5.65;;;6.10;99.90;;;;;;4995307;28;20058;-41
2022/11/22 09:44:29;;;;;;;27.70;11.70;;;6.10;99.90;;;;;;4978822;28;20132;-39
2022/11/22 09:46:58;;;;;;;21.25;4.90;;;6.10;99.90;;;;;;4999811;28;20085;-40
2022/11/22 09:49:28;;;;;;;17.13;6.32;;;6.20;99.90;;;;;;5001260;28;20105;-41
2022/11/22 09:52:01;;;;;;;22.83;4.72;;;6.20;99.90;;;;;;5011942;28;20054;-41
2022/11/22 09:54:30;;;;;;;31.33;14.25;;;6.20;99.90;;;;;;5004171;28;20125;-38
2022/11/22 09:56:59;;;;;;;19.95;5.63;;;6.20;99.90;;;;;;5005979;28;20133;-40
2022/11/22 09:59:29;;;;;;;20.10;4.80;;;6.30;99.90;;;;;;4990489;28;20082;-40
2022/11/22 10:01:59;;;;;;;15.13;4.53;;;6.30;99.90;;;;;;4990586;28;20502;-39
2022/11/22 10:04:27;;;;;;;14.27;4.10;;;6.30;99.90;;;;;;4995870;28;20042;-40
2022/11/22 10:06:55;;;;;;;17.83;3.80;;;6.40;99.90;;;;;;5009557;28;20108;-41
2022/11/22 10:09:28;;;;;;;13.85;3.83;;;6.40;99.90;;;;;;5003724;28;20133;-41
2022/11/22 10:11:57;;;;;;;16.40;3.20;;;6.40;99.90;;;;;;4991080;28;20086;-40
2022/11/22 10:14:30;;;;;;;13.68;3.70;;;6.40;99.90;;;;;;4996393;28;20541;-40
2022/11/22 10:16:58;;;;;;;12.93;3.05;;;6.40;99.90;;;;;;4994706;28;20050;-40
2022/11/22 10:19:28;;;;;;;15.20;3.20;;;6.40;99.90;;;;;;4991578;28;20058;-41
2022/11/22 10:21:54;;;;;;;14.85;4.63;;;6.50;99.90;;;;;;4989984;28;20054;-40
2022/11/22 10:24:21;;;;;;;13.82;3.78;;;6.40;99.90;;;;;;5008386;28;20376;-40
2022/11/22 10:26:48;;;;;;;19.33;3.80;;;6.50;99.90;;;;;;5009377;28;20042;-39
2022/11/22 10:29:22;;;;;;;10.35;3.47;;;6.60;99.90;;;;;;5011024;28;20064;-40
2022/11/22 10:31:54;;;;;;;14.18;3.55;;;6.60;99.90;;;;;;5005310;28;20054;-40
2022/11/22 10:34:26;;;;;;;12.27;3.42;;;6.60;99.90;;;;;;4997728;28;20058;-40
2022/11/22 10:36:56;;;;;;;18.35;4.00;;;6.70;99.90;;;;;;5014699;28;20046;-39
2022/11/22 10:39:49;;;;;;;13.32;3.70;;;6.80;99.90;;;;;;5011972;28;20053;-39
2022/11/22 10:42:22;;;;;;;16.65;3.72;;;6.80;99.90;;;;;;5012396;28;20053;-41
2022/11/22 10:44:52;;;;;;;18.20;4.18;;;7.00;99.90;;;;;;4995081;28;20142;-39
2022/11/22 10:47:28;;;;;;;14.65;4.30;;;7.10;99.90;;;;;;5011472;28;20042;-40
2022/11/22 10:49:57;;;;;;;19.45;3.80;;;7.10;99.90;;;;;;5014520;28;20061;-39
2022/11/22 10:52:29;;;;;;;15.65;3.70;;;7.20;99.90;;;;;;5011645;28;20136;-39
2022/11/22 10:54:59;;;;;;;22.15;4.10;;;7.20;99.90;;;;;;5012282;28;20053;-39
2022/11/22 10:57:29;;;;;;;13.63;3.90;;;7.30;99.90;;;;;;5013131;28;20511;-39
2022/11/22 11:00:03;;;;;;;15.15;3.92;;;7.20;99.90;;;;;;4997432;28;20061;-39
2022/11/22 11:02:40;;;;;;;20.58;4.20;;;7.30;99.90;;;;;;5003773;28;20144;-40
2022/11/22 11:05:10;;;;;;;19.00;3.10;;;7.20;99.90;;;;;;5013142;28;20050;-38
2022/11/22 11:07:36;;;;;;;14.50;3.53;;;7.20;99.90;;;;;;4994677;28;20094;-39
2022/11/22 11:10:04;;;;;;;13.70;3.55;;;7.30;99.90;;;;;;5001260;28;20046;-40
2022/11/22 11:12:35;;;;;;;14.57;3.95;;;7.30;99.90;;;;;;5013512;28;20191;-39
2022/11/22 11:15:04;;;;;;;13.95;3.63;;;7.30;99.90;;;;;;5012098;28;20573;-40
2022/11/22 11:17:33;;;;;;;13.98;4.78;;;7.20;99.90;;;;;;5013776;28;20061;-40
2022/11/22 11:20:03;;;;;;;16.38;4.05;;;7.20;99.90;;;;;;5013599;28;20386;-41
2022/11/22 11:22:32;;;;;;;12.88;3.95;;;7.30;99.90;;;;;;5014043;28;20109;-40
2022/11/22 11:24:58;;;;;;;12.23;3.33;;;7.30;99.90;;;;;;5006403;28;20073;-41
2022/11/22 11:27:25;;;;;;;19.92;3.63;;;7.30;99.90;;;;;;5008117;28;20074;-39
2022/11/22 11:29:53;;;;;;;9.50;2.80;;;7.30;99.90;;;;;;5013770;28;20529;-40
2022/11/22 11:32:20;;;;;;;19.77;4.40;;;7.30;99.90;;;;;;5013438;28;20124;-38
2022/11/22 11:34:53;;;;;;;10.13;2.75;;;7.40;99.90;;;;;;5008251;28;20101;-40
2022/11/22 11:37:26;;;;;;;14.25;3.65;;;7.30;99.90;;;;;;5009024;28;20396;-39
2022/11/22 11:39:53;;;;;;;15.20;2.67;;;7.30;99.90;;;;;;4994159;28;20058;-40
2022/11/22 11:42:24;;;;;;;42.22;21.95;;;7.30;99.90;;;;;;4996962;28;20078;-40
2022/11/22 11:44:51;;;;;;;14.50;2.72;;;7.40;99.90;;;;;;5011632;28;20049;-42
2022/11/22 11:47:18;;;;;;;13.80;2.90;;;7.40;99.90;;;;;;4999907;28;20045;-40
2022/11/22 11:49:50;;;;;;;17.08;2.53;;;7.40;99.90;;;;;;5013555;28;20053;-41
2022/11/22 11:52:19;;;;;;;18.67;2.35;;;7.40;99.90;;;;;;5013641;28;20049;-41
2022/11/22 11:54:48;;;;;;;17.00;3.65;;;7.40;99.90;;;;;;5010334;28;20137;-41
2022/11/22 11:57:15;;;;;;;18.80;4.47;;;7.50;99.90;;;;;;4997615;28;20137;-39
2022/11/22 11:59:44;;;;;;;19.85;5.25;;;7.50;99.90;;;;;;4993583;28;20464;-40
2022/11/22 12:02:12;;;;;;;10.10;2.70;;;7.50;99.90;;;;;;4993555;28;20089;-39
2022/11/22 12:04:47;;;;;;;10.65;3.28;;;7.50;99.90;;;;;;4993933;28;20077;-41
2022/11/22 12:07:18;;;;;;;14.65;3.30;;;7.60;99.90;;;;;;4976706;28;20109;-40
2022/11/22 12:09:47;;;;;;;19.88;3.08;;;7.50;99.90;;;;;;5006502;28;20097;-40
2022/11/22 12:12:33;;;;;;;15.68;2.90;;;7.60;99.90;;;;;;4993590;28;20475;-40
2022/11/22 12:15:04;;;;;;;7.97;2.25;;;7.60;99.90;;;;;;4993450;28;20570;-41
2022/11/22 12:17:31;;;;;;;6.35;1.95;;;7.60;99.90;;;;;;4992525;28;20145;-41
2022/11/22 12:20:02;;;;;;;14.63;3.08;;;7.70;99.90;;;;;;4992188;28;20057;-41
2022/11/22 12:22:32;;;;;;;17.90;2.73;;;7.60;99.90;;;;;;5003583;28;20057;-40
2022/11/22 12:25:04;;;;;;;13.82;2.67;;;7.60;99.90;;;;;;5009847;28;20109;-39
2022/11/22 12:27:31;;;;;;;8.45;2.47;;;7.70;99.90;;;;;;5000972;28;20077;-40
2022/11/22 12:29:57;;;;;;;11.65;2.45;;;7.70;99.90;;;;;;5009686;28;20046;-40
2022/11/22 12:32:27;;;;;;;15.77;2.53;;;7.70;99.90;;;;;;5012250;28;20050;-40
2022/11/22 12:34:55;;;;;;;11.38;2.25;;;7.60;99.90;;;;;;5009365;28;20080;-40
2022/11/22 12:37:23;;;;;;;9.07;1.98;;;7.70;99.90;;;;;;4992975;28;20145;-40
2022/11/22 12:39:51;;;;;;;13.00;2.63;;;7.70;99.90;;;;;;4991582;28;20494;-40
2022/11/22 12:42:21;;;;;;;14.52;2.50;;;7.80;99.90;;;;;;4991937;28;20086;-40
2022/11/22 12:44:49;;;;;;;15.95;2.65;;;7.70;99.90;;;;;;4993193;28;20086;-39
2022/11/22 12:47:18;;;;;;;21.95;7.30;;;7.70;99.90;;;;;;5012502;28;20054;-42
2022/11/22 12:49:46;;;;;;;37.00;12.68;;;7.70;99.90;;;;;;5012209;28;20482;-40
2022/11/22 12:52:17;;;;;;;128.45;47.17;;;7.70;99.90;;;;;;5011288;28;20093;-41
2022/11/22 12:54:48;;;;;;;184.43;67.45;;;7.70;99.90;;;;;;5011753;28;20046;-38
2022/11/22 12:57:17;;;;;;;156.27;57.75;;;7.70;99.90;;;;;;5010576;28;20147;-37
2022/11/22 12:59:48;;;;;;;82.88;30.75;;;7.70;99.90;;;;;;5011886;28;20556;-40